Time;durP1;ratioP1;P1;durP2;ratioP2;P2;SDS_P1;SDS_P2;PMS_P1;PMS_P2;Temp;Humidity;BMP_temperature;BMP_pressure;BME280_temperature;BME280_humidity;BME280_pressure;Samples;Min_cycle;Max_cycle;Signal;HPM_P1;HPM_P2
2023/04/19 00:00:40;;;;;;;11.52;7.75;;;;;;;;;;4993551;28;20038;-76
2023/04/19 00:03:06;;;;;;;9.20;7.78;;;;;;;;;;4993672;28;20046;-76
2023/04/19 00:05:32;;;;;;;11.27;7.55;;;;;;;;;;4993716;28;20077;-76
2023/04/19 00:07:58;;;;;;;10.40;6.72;;;;;;;;;;4993413;28;20484;-76
2023/04/19 00:10:24;;;;;;;8.85;6.68;;;;;;;;;;4974323;28;20038;-75
2023/04/19 00:12:50;;;;;;;10.25;6.88;;;;;;;;;;4974262;28;20027;-75
2023/04/19 00:15:17;;;;;;;10.90;7.63;;;;;;;;;;4974183;28;20057;-76
2023/04/19 00:17:42;;;;;;;10.13;6.68;;;;;;;;;;4973931;28;20544;-75
2023/04/19 00:20:09;;;;;;;12.70;6.70;;;;;;;;;;4973892;28;20058;-76
2023/04/19 00:22:35;;;;;;;18.42;7.25;;;;;;;;;;4989442;28;20075;-76
2023/04/19 00:25:01;;;;;;;15.52;7.65;;;;;;;;;;4993447;28;20034;-75
2023/04/19 00:27:27;;;;;;;12.55;6.70;;;;;;;;;;4992897;28;20121;-75
2023/04/19 00:29:52;;;;;;;11.98;6.70;;;;;;;;;;4991847;28;20126;-75
2023/04/19 00:32:18;;;;;;;10.57;6.70;;;;;;;;;;4993330;28;20431;-75
2023/04/19 00:34:44;;;;;;;11.75;7.25;;;;;;;;;;5008174;28;20052;-76
2023/04/19 00:37:10;;;;;;;12.95;6.78;;;;;;;;;;4988666;28;20437;-75
2023/04/19 00:39:39;;;;;;;9.98;6.40;;;;;;;;;;4972188;28;20505;-76
2023/04/19 00:42:05;;;;;;;13.68;6.32;;;;;;;;;;4973450;28;20117;-76
2023/04/19 00:44:31;;;;;;;10.93;6.53;;;;;;;;;;4972339;28;20105;-76
2023/04/19 00:46:58;;;;;;;11.32;7.70;;;;;;;;;;4972268;28;20035;-76
2023/04/19 00:49:24;;;;;;;13.07;6.95;;;;;;;;;;4972119;28;20031;-77
2023/04/19 00:51:50;;;;;;;12.65;6.57;;;;;;;;;;4983090;28;20046;-76
2023/04/19 00:54:17;;;;;;;9.75;6.00;;;;;;;;;;4992813;28;20034;-76
2023/04/19 00:56:44;;;;;;;9.23;6.00;;;;;;;;;;4992373;28;20382;-76
2023/04/19 00:59:10;;;;;;;9.90;6.80;;;;;;;;;;4971536;28;20096;-75
2023/04/19 01:01:37;;;;;;;15.70;7.47;;;;;;;;;;4972526;28;20034;-76
2023/04/19 01:04:07;;;;;;;7.93;6.22;;;;;;;;;;4977104;28;20018;-76
2023/04/19 01:06:34;;;;;;;9.00;5.95;;;;;;;;;;4992609;28;20389;-75
2023/04/19 01:09:00;;;;;;;9.23;6.72;;;;;;;;;;4992558;28;20069;-76
2023/04/19 01:11:26;;;;;;;9.38;6.20;;;;;;;;;;4992868;28;20476;-74
2023/04/19 01:13:52;;;;;;;9.20;6.70;;;;;;;;;;5024370;28;20037;-76
2023/04/19 01:16:19;;;;;;;8.60;6.57;;;;;;;;;;4991626;28;20050;-78
2023/04/19 01:18:45;;;;;;;12.82;6.65;;;;;;;;;;4992498;28;20037;-80
2023/04/19 01:21:11;;;;;;;9.82;5.63;;;;;;;;;;4988092;28;20077;-77
2023/04/19 01:23:38;;;;;;;8.32;6.07;;;;;;;;;;4955681;28;20032;-76
2023/04/19 01:26:05;;;;;;;10.35;6.05;;;;;;;;;;4973240;28;20581;-75
2023/04/19 01:28:31;;;;;;;9.63;6.57;;;;;;;;;;4987871;28;20065;-76
2023/04/19 01:30:57;;;;;;;9.10;6.88;;;;;;;;;;4973414;28;20118;-76
2023/04/19 01:33:25;;;;;;;8.30;5.65;;;;;;;;;;4970857;28;20083;-74
2023/04/19 01:35:50;;;;;;;10.25;6.55;;;;;;;;;;4992142;28;20496;-75
2023/04/19 01:38:16;;;;;;;8.88;5.38;;;;;;;;;;5005253;28;20037;-76
2023/04/19 01:40:43;;;;;;;7.38;5.90;;;;;;;;;;4987309;28;20563;-75
2023/04/19 01:43:12;;;;;;;10.35;6.80;;;;;;;;;;5007636;28;20060;-75
2023/04/19 01:45:38;;;;;;;9.30;6.05;;;;;;;;;;4991447;28;20065;-76
2023/04/19 01:48:04;;;;;;;8.65;5.70;;;;;;;;;;4992397;28;20408;-76
2023/04/19 01:50:31;;;;;;;8.57;6.25;;;;;;;;;;4991175;28;20026;-76
2023/04/19 01:52:57;;;;;;;7.05;5.78;;;;;;;;;;4990885;28;20038;-75
2023/04/19 01:55:23;;;;;;;8.15;5.95;;;;;;;;;;4991116;28;20045;-76
2023/04/19 01:57:54;;;;;;;6.43;4.88;;;;;;;;;;5007446;28;20205;-76
2023/04/19 02:00:21;;;;;;;7.35;5.28;;;;;;;;;;4990870;28;20373;-75
2023/04/19 02:02:47;;;;;;;7.57;4.85;;;;;;;;;;4992458;28;20037;-76
2023/04/19 02:05:14;;;;;;;7.85;5.15;;;;;;;;;;4992377;28;20034;-76
2023/04/19 02:07:40;;;;;;;7.85;4.63;;;;;;;;;;4990829;28;20077;-75
2023/04/19 02:10:09;;;;;;;9.93;5.38;;;;;;;;;;4990780;28;20045;-76
2023/04/19 02:12:37;;;;;;;8.38;6.20;;;;;;;;;;4991366;28;20035;-77
2023/04/19 02:15:03;;;;;;;10.43;6.50;;;;;;;;;;4991000;28;20026;-76
2023/04/19 02:17:29;;;;;;;14.38;8.60;;;;;;;;;;5007214;28;20400;-76
2023/04/19 02:19:56;;;;;;;13.75;7.55;;;;;;;;;;4990528;28;20026;-75
2023/04/19 02:22:22;;;;;;;10.95;8.75;;;;;;;;;;4974786;28;20034;-75
2023/04/19 02:24:51;;;;;;;10.35;7.78;;;;;;;;;;4990852;28;20022;-76
2023/04/19 02:27:17;;;;;;;14.23;7.78;;;;;;;;;;4990909;28;20053;-76
2023/04/19 02:29:43;;;;;;;10.32;8.40;;;;;;;;;;4990611;28;20473;-76
2023/04/19 02:32:11;;;;;;;12.95;8.15;;;;;;;;;;4974701;28;20551;-75
2023/04/19 02:34:38;;;;;;;13.30;8.35;;;;;;;;;;4992898;28;20480;-76
2023/04/19 02:37:04;;;;;;;20.85;9.45;;;;;;;;;;4994522;28;20026;-76
2023/04/19 02:39:30;;;;;;;13.93;9.07;;;;;;;;;;4994073;28;20574;-76
2023/04/19 02:41:55;;;;;;;14.20;8.82;;;;;;;;;;5002305;28;20126;-76
2023/04/19 02:44:21;;;;;;;16.00;8.27;;;;;;;;;;4993806;28;20077;-76
2023/04/19 02:46:49;;;;;;;12.52;7.88;;;;;;;;;;4992959;28;20030;-76
2023/04/19 02:49:15;;;;;;;12.70;7.95;;;;;;;;;;4993342;28;20034;-76
2023/04/19 02:51:41;;;;;;;10.65;7.20;;;;;;;;;;4977967;28;20049;-76
2023/04/19 02:54:07;;;;;;;11.10;7.38;;;;;;;;;;4977552;28;20026;-75
2023/04/19 02:56:32;;;;;;;11.85;7.32;;;;;;;;;;4977981;28;20034;-76
2023/04/19 02:59:01;;;;;;;14.27;7.80;;;;;;;;;;4993721;28;20470;-76
2023/04/19 03:01:29;;;;;;;11.65;7.25;;;;;;;;;;4993813;28;20041;-75
2023/04/19 03:03:55;;;;;;;10.02;7.40;;;;;;;;;;4993692;28;20034;-76
2023/04/19 03:06:21;;;;;;;10.15;8.02;;;;;;;;;;4990320;28;20439;-76
2023/04/19 03:08:48;;;;;;;18.75;8.43;;;;;;;;;;4994630;28;20033;-75
2023/04/19 03:11:17;;;;;;;16.13;8.23;;;;;;;;;;4977882;28;20034;-76
2023/04/19 03:13:43;;;;;;;11.68;8.38;;;;;;;;;;4993474;28;20385;-75
2023/04/19 03:16:08;;;;;;;11.20;7.53;;;;;;;;;;4993620;28;20042;-75
2023/04/19 03:18:35;;;;;;;11.85;7.32;;;;;;;;;;4992750;28;20419;-75
2023/04/19 03:21:03;;;;;;;11.65;8.48;;;;;;;;;;4993577;28;20034;-76
2023/04/19 03:23:34;;;;;;;15.02;8.93;;;;;;;;;;5009544;28;20117;-76
2023/04/19 03:26:01;;;;;;;9.95;6.97;;;;;;;;;;5009789;28;20113;-76
2023/04/19 03:28:37;;;;;;;15.35;8.10;;;;;;;;;;4978266;28;20034;-76
2023/04/19 03:31:22;;;;;;;15.27;7.82;;;;;;;;;;4994913;28;20600;-75
2023/04/19 03:33:49;;;;;;;15.13;7.47;;;;;;;;;;4994296;28;20042;-76
2023/04/19 03:36:16;;;;;;;10.50;6.95;;;;;;;;;;5009354;28;20053;-76
2023/04/19 03:38:45;;;;;;;10.68;6.38;;;;;;;;;;4977151;28;20089;-75
2023/04/19 03:41:24;;;;;;;11.02;6.70;;;;;;;;;;4992695;28;20110;-76
2023/04/19 03:44:13;;;;;;;11.80;6.63;;;;;;;;;;4992961;28;20030;-75
2023/04/19 03:46:45;;;;;;;9.85;7.13;;;;;;;;;;4991142;28;20061;-76
2023/04/19 03:49:12;;;;;;;20.77;8.35;;;;;;;;;;4992315;28;20026;-75
2023/04/19 03:51:40;;;;;;;12.20;7.30;;;;;;;;;;4976560;28;20129;-75
2023/04/19 03:54:06;;;;;;;13.52;7.43;;;;;;;;;;4976537;28;20052;-76
2023/04/19 03:56:32;;;;;;;11.88;6.90;;;;;;;;;;4993976;28;20026;-76
2023/04/19 03:58:58;;;;;;;11.45;6.72;;;;;;;;;;4992170;28;20129;-75
2023/04/19 04:01:27;;;;;;;13.23;6.63;;;;;;;;;;5008938;28;20022;-76
2023/04/19 04:03:54;;;;;;;9.38;6.20;;;;;;;;;;5008637;28;20027;-75
2023/04/19 04:06:20;;;;;;;21.80;9.32;;;;;;;;;;5002409;28;20026;-76
2023/04/19 04:08:46;;;;;;;10.13;7.00;;;;;;;;;;4991802;28;20046;-75
2023/04/19 04:11:12;;;;;;;13.23;7.43;;;;;;;;;;4992333;28;20463;-75
2023/04/19 04:13:38;;;;;;;17.42;6.75;;;;;;;;;;4992175;28;20038;-75
2023/04/19 04:16:14;;;;;;;13.95;6.50;;;;;;;;;;4992083;28;20085;-75
2023/04/19 04:18:40;;;;;;;18.73;7.55;;;;;;;;;;4991342;28;20038;-76
2023/04/19 04:21:09;;;;;;;18.17;6.47;;;;;;;;;;4991925;28;20018;-75
2023/04/19 04:23:39;;;;;;;9.05;6.25;;;;;;;;;;4995101;28;20038;-75
2023/04/19 04:26:08;;;;;;;10.45;6.10;;;;;;;;;;4991596;28;20073;-76
2023/04/19 04:28:48;;;;;;;10.60;5.65;;;;;;;;;;4991728;28;20042;-76
2023/04/19 04:31:16;;;;;;;13.07;6.07;;;;;;;;;;4991718;28;20084;-75
2023/04/19 04:33:44;;;;;;;11.55;6.32;;;;;;;;;;4991615;28;20065;-75
2023/04/19 04:36:12;;;;;;;9.07;6.28;;;;;;;;;;4992927;28;20033;-75
2023/04/19 04:38:39;;;;;;;12.10;7.03;;;;;;;;;;4990426;28;20480;-75
2023/04/19 04:41:05;;;;;;;10.45;6.53;;;;;;;;;;4987666;28;20041;-75
2023/04/19 04:43:32;;;;;;;11.32;6.70;;;;;;;;;;5007479;28;20037;-75
2023/04/19 04:45:58;;;;;;;14.63;6.22;;;;;;;;;;4991460;28;20624;-76
2023/04/19 04:48:30;;;;;;;19.23;6.43;;;;;;;;;;5006139;28;20027;-76
2023/04/19 04:50:56;;;;;;;11.30;5.95;;;;;;;;;;4984140;28;20041;-75
2023/04/19 04:53:27;;;;;;;10.23;6.10;;;;;;;;;;5007834;28;20028;-76
2023/04/19 04:55:53;;;;;;;13.93;6.45;;;;;;;;;;4991999;28;20038;-75
2023/04/19 04:58:19;;;;;;;12.35;6.53;;;;;;;;;;4990729;28;20030;-75
2023/04/19 05:00:54;;;;;;;8.98;5.72;;;;;;;;;;5006316;28;20465;-76
2023/04/19 05:03:21;;;;;;;16.73;6.55;;;;;;;;;;4991129;28;20128;-75
2023/04/19 05:05:53;;;;;;;11.38;5.60;;;;;;;;;;4975874;28;20538;-75
2023/04/19 05:08:19;;;;;;;10.52;5.60;;;;;;;;;;4990623;28;20129;-76
2023/04/19 05:10:45;;;;;;;19.42;6.15;;;;;;;;;;4990749;28;20484;-76
2023/04/19 05:13:13;;;;;;;10.48;5.93;;;;;;;;;;4991198;28;20518;-76
2023/04/19 05:15:39;;;;;;;9.25;4.70;;;;;;;;;;5006987;28;20065;-74
2023/04/19 05:18:08;;;;;;;19.45;6.93;;;;;;;;;;4990401;28;20345;-75
2023/04/19 05:20:34;;;;;;;11.90;4.78;;;;;;;;;;4983090;28;20030;-76
2023/04/19 05:23:10;;;;;;;9.15;5.25;;;;;;;;;;4991396;28;20683;-75
2023/04/19 05:25:36;;;;;;;7.72;4.85;;;;;;;;;;4990453;28;20037;-75
2023/04/19 05:28:03;;;;;;;7.80;4.88;;;;;;;;;;4990694;28;20172;-76
2023/04/19 05:30:37;;;;;;;11.55;5.57;;;;;;;;;;4992251;28;20038;-75
2023/04/19 05:33:04;;;;;;;6.35;4.88;;;;;;;;;;4974691;28;20034;-75
2023/04/19 05:35:30;;;;;;;11.85;5.10;;;;;;;;;;5003885;28;20061;-76
2023/04/19 05:37:56;;;;;;;6.25;4.75;;;;;;;;;;4982480;28;20573;-77
2023/04/19 05:40:23;;;;;;;9.45;5.10;;;;;;;;;;4988078;28;20030;-76
2023/04/19 05:42:49;;;;;;;9.85;5.35;;;;;;;;;;4984120;28;20038;-77
2023/04/19 05:45:17;;;;;;;6.95;4.78;;;;;;;;;;4989463;28;20034;-77
2023/04/19 05:47:43;;;;;;;9.15;5.30;;;;;;;;;;4990467;28;20053;-77
2023/04/19 05:50:38;;;;;;;9.65;5.10;;;;;;;;;;4976948;28;20472;-76
2023/04/19 05:53:33;;;;;;;10.38;5.85;;;;;;;;;;4950825;28;20043;-75
2023/04/19 05:56:00;;;;;;;9.57;5.85;;;;;;;;;;5003452;28;20121;-77
2023/04/19 05:58:26;;;;;;;13.90;6.13;;;;;;;;;;4987014;28;20034;-75
2023/04/19 06:00:52;;;;;;;11.70;5.53;;;;;;;;;;4985940;28;20053;-76
2023/04/19 06:03:19;;;;;;;9.05;5.20;;;;;;;;;;4972470;28;20042;-75
2023/04/19 06:05:45;;;;;;;9.63;5.13;;;;;;;;;;5002629;28;20049;-75
2023/04/19 06:08:11;;;;;;;9.88;5.10;;;;;;;;;;4995355;28;20121;-76
2023/04/19 06:10:37;;;;;;;9.48;4.97;;;;;;;;;;4993563;28;20034;-75
2023/04/19 06:13:03;;;;;;;6.38;4.35;;;;;;;;;;4993833;28;20117;-76
2023/04/19 06:15:29;;;;;;;9.45;5.10;;;;;;;;;;4992362;28;20184;-75
2023/04/19 06:17:57;;;;;;;13.02;5.30;;;;;;;;;;5009649;28;20603;-76
2023/04/19 06:20:22;;;;;;;8.38;5.13;;;;;;;;;;4991255;28;20113;-76
2023/04/19 06:22:48;;;;;;;9.77;5.00;;;;;;;;;;4992954;28;20189;-75
2023/04/19 06:25:14;;;;;;;8.13;5.28;;;;;;;;;;4988056;28;20081;-75
2023/04/19 06:27:40;;;;;;;8.30;4.20;;;;;;;;;;5009121;28;20057;-76
2023/04/19 06:30:07;;;;;;;8.90;4.35;;;;;;;;;;4993524;28;20049;-76
2023/04/19 06:32:32;;;;;;;9.10;4.60;;;;;;;;;;4994542;28;20554;-78
2023/04/19 06:34:58;;;;;;;7.20;4.78;;;;;;;;;;4990961;28;20027;-77
2023/04/19 06:37:25;;;;;;;10.50;4.88;;;;;;;;;;4992794;28;20070;-79
2023/04/19 06:39:51;;;;;;;6.03;4.50;;;;;;;;;;4991404;28;20045;-77
2023/04/19 06:42:18;;;;;;;10.75;4.93;;;;;;;;;;4995027;28;20030;-82
2023/04/19 06:44:44;;;;;;;6.25;4.88;;;;;;;;;;4994805;28;20038;-80
2023/04/19 06:47:10;;;;;;;9.38;4.78;;;;;;;;;;4993633;28;20514;-80
2023/04/19 06:49:37;;;;;;;9.63;6.13;;;;;;;;;;4989655;28;20088;-78
2023/04/19 06:52:03;;;;;;;12.73;7.38;;;;;;;;;;4990741;28;20022;-80
2023/04/19 06:54:30;;;;;;;11.48;5.40;;;;;;;;;;4992931;28;20522;-79
2023/04/19 06:56:57;;;;;;;8.82;4.82;;;;;;;;;;4993004;28;20086;-79
2023/04/19 06:59:27;;;;;;;6.30;4.22;;;;;;;;;;4989288;28;20030;-79
2023/04/19 07:01:53;;;;;;;7.57;4.22;;;;;;;;;;4987102;28;20481;-79
2023/04/19 07:04:20;;;;;;;11.45;4.38;;;;;;;;;;4975116;28;20034;-80
2023/04/19 07:06:50;;;;;;;8.60;4.10;;;;;;;;;;4985374;28;20429;-82
2023/04/19 07:09:16;;;;;;;9.18;4.95;;;;;;;;;;4984370;28;20507;-82
2023/04/19 07:11:42;;;;;;;9.68;4.13;;;;;;;;;;4996229;28;20557;-79
2023/04/19 07:14:10;;;;;;;10.38;4.10;;;;;;;;;;4987775;28;20038;-78
2023/04/19 07:16:37;;;;;;;6.43;3.70;;;;;;;;;;4987950;28;20077;-78
2023/04/19 07:19:03;;;;;;;8.45;3.97;;;;;;;;;;4986525;28;20052;-80
2023/04/19 07:21:32;;;;;;;6.95;4.07;;;;;;;;;;4989797;28;20054;-79
2023/04/19 07:23:58;;;;;;;10.00;4.03;;;;;;;;;;4988077;28;20078;-79
2023/04/19 07:26:24;;;;;;;8.57;4.55;;;;;;;;;;4990216;28;20054;-79
2023/04/19 07:28:50;;;;;;;7.70;4.55;;;;;;;;;;4987619;28;20026;-80
2023/04/19 07:31:17;;;;;;;9.63;4.15;;;;;;;;;;4988223;28;20038;-79
2023/04/19 07:33:43;;;;;;;7.95;4.53;;;;;;;;;;4991292;28;20166;-78
2023/04/19 07:36:09;;;;;;;7.72;4.03;;;;;;;;;;4984237;28;20078;-80
2023/04/19 07:38:35;;;;;;;7.70;4.60;;;;;;;;;;4991539;28;20046;-77
2023/04/19 07:41:02;;;;;;;9.70;4.07;;;;;;;;;;4993102;28;20070;-78
2023/04/19 07:43:41;;;;;;;6.45;3.80;;;;;;;;;;5007501;28;20161;-78
2023/04/19 07:46:15;;;;;;;5.32;3.75;;;;;;;;;;4986323;28;20676;-80
2023/04/19 07:48:41;;;;;;;7.20;3.78;;;;;;;;;;4990524;28;20038;-79
2023/04/19 07:51:11;;;;;;;4.80;2.85;;;;;;;;;;4989470;28;20030;-79
2023/04/19 07:53:38;;;;;;;5.80;3.00;;;;;;;;;;4993603;28;20034;-78
2023/04/19 07:56:08;;;;;;;3.90;2.95;;;;;;;;;;5008802;28;20057;-80
2023/04/19 07:58:35;;;;;;;6.18;2.97;;;;;;;;;;4991126;28;20388;-81
2023/04/19 08:01:01;;;;;;;5.50;2.80;;;;;;;;;;4988829;28;20413;-82
2023/04/19 08:03:27;;;;;;;6.97;3.00;;;;;;;;;;4987049;28;20026;-80
2023/04/19 08:05:52;;;;;;;3.80;2.38;;;;;;;;;;4990293;28;20508;-78
2023/04/19 08:08:18;;;;;;;3.78;1.98;;;;;;;;;;4986926;28;20449;-81
2023/04/19 08:10:45;;;;;;;6.50;2.60;;;;;;;;;;4986615;28;20025;-81
2023/04/19 08:13:11;;;;;;;7.10;2.20;;;;;;;;;;4996273;28;20038;-81
2023/04/19 08:15:38;;;;;;;6.40;2.10;;;;;;;;;;4986286;28;20448;-80
2023/04/19 08:18:04;;;;;;;6.72;2.40;;;;;;;;;;4982551;28;20049;-80
2023/04/19 08:20:32;;;;;;;7.85;2.50;;;;;;;;;;4985366;28;20380;-81
2023/04/19 08:22:59;;;;;;;6.03;2.47;;;;;;;;;;4995971;28;20023;-80
2023/04/19 08:25:27;;;;;;;6.32;2.75;;;;;;;;;;4988505;28;20061;-82
2023/04/19 08:27:57;;;;;;;6.95;2.55;;;;;;;;;;4986930;28;20046;-81
2023/04/19 08:30:23;;;;;;;6.40;2.60;;;;;;;;;;4980449;28;20895;-79
2023/04/19 08:32:51;;;;;;;2.78;2.05;;;;;;;;;;4990908;28;20033;-83
2023/04/19 08:35:17;;;;;;;4.95;2.40;;;;;;;;;;4994481;28;20121;-82
2023/04/19 08:37:43;;;;;;;3.80;2.45;;;;;;;;;;4985891;28;20118;-79
2023/04/19 08:40:10;;;;;;;5.22;2.83;;;;;;;;;;4984649;28;20057;-80
2023/04/19 08:42:36;;;;;;;4.00;2.20;;;;;;;;;;4994334;28;20089;-82
2023/04/19 08:45:06;;;;;;;5.68;1.90;;;;;;;;;;4992509;28;20507;-80
2023/04/19 08:47:35;;;;;;;7.57;2.30;;;;;;;;;;4978156;28;20035;-78
2023/04/19 08:50:07;;;;;;;5.55;2.30;;;;;;;;;;4981823;28;20497;-80
2023/04/19 08:52:35;;;;;;;;;;;;;;;;;;4985852;28;20093;-79
2023/04/19 08:55:03;;;;;;;4.45;2.30;;;;;;;;;;4990708;28;19953;-80
2023/04/19 08:57:31;;;;;;;4.25;1.77;;;;;;;;;;4989417;28;20045;-81
2023/04/19 09:00:00;;;;;;;3.97;2.15;;;;;;;;;;4991124;28;20018;-81
2023/04/19 09:02:42;;;;;;;2.88;1.67;;;;;;;;;;5007352;28;20034;-81
2023/04/19 09:05:11;;;;;;;6.13;2.00;;;;;;;;;;4983285;28;20039;-79
2023/04/19 09:07:37;;;;;;;4.07;1.85;;;;;;;;;;4991496;28;20068;-80
2023/04/19 09:10:06;;;;;;;6.15;3.28;;;;;;;;;;4989957;28;20132;-78
2023/04/19 09:12:34;;;;;;;5.28;2.70;;;;;;;;;;5003616;28;20050;-81
2023/04/19 09:15:05;;;;;;;4.00;2.40;;;;;;;;;;4981580;28;20096;-81
2023/04/19 09:17:31;;;;;;;4.38;2.42;;;;;;;;;;4987616;28;20049;-82
2023/04/19 09:19:57;;;;;;;4.47;2.20;;;;;;;;;;5000750;28;20031;-83
2023/04/19 09:22:24;;;;;;;3.55;2.20;;;;;;;;;;4987955;28;20034;-80
2023/04/19 09:24:51;;;;;;;3.97;2.35;;;;;;;;;;4977092;28;20046;-81
2023/04/19 09:27:33;;;;;;;3.47;2.60;;;;;;;;;;4987061;28;20130;-80
2023/04/19 09:30:01;;;;;;;3.38;2.38;;;;;;;;;;4985595;28;20061;-79
2023/04/19 09:32:28;;;;;;;4.43;2.55;;;;;;;;;;4981981;28;20121;-80
2023/04/19 09:34:58;;;;;;;2.90;2.00;;;;;;;;;;4988024;28;20545;-81
2023/04/19 09:37:25;;;;;;;4.07;1.92;;;;;;;;;;4985229;28;20030;-78
2023/04/19 09:39:53;;;;;;;4.28;2.78;;;;;;;;;;4988118;28;20053;-80
2023/04/19 09:42:19;;;;;;;26.17;8.15;;;;;;;;;;4969365;28;20038;-78
2023/04/19 09:44:56;;;;;;;5.50;2.60;;;;;;;;;;4990841;28;20503;-79
2023/04/19 09:47:28;;;;;;;5.10;2.30;;;;;;;;;;4989761;28;20133;-79
2023/04/19 09:50:11;;;;;;;3.70;2.60;;;;;;;;;;4991675;28;20041;-79
2023/04/19 09:52:38;;;;;;;4.95;2.90;;;;;;;;;;4986007;28;20493;-80
2023/04/19 09:55:07;;;;;;;4.43;2.92;;;;;;;;;;4991522;28;20034;-80
2023/04/19 09:57:34;;;;;;;4.90;3.08;;;;;;;;;;4974481;28;20512;-79
2023/04/19 10:00:03;;;;;;;7.75;3.63;;;;;;;;;;4995831;28;20396;-81
2023/04/19 10:02:56;;;;;;;4.65;2.92;;;;;;;;;;4980767;28;20043;-80
2023/04/19 10:05:24;;;;;;;;;;;;;;;;;;4942594;28;20184;-78
2023/04/19 10:07:51;;;;;;;4.55;3.03;;;;;;;;;;4974402;28;19910;-80
2023/04/19 10:10:18;;;;;;;6.28;3.25;;;;;;;;;;4953917;28;20054;-79
2023/04/19 10:12:48;;;;;;;6.68;3.58;;;;;;;;;;4965590;28;20720;-80
2023/04/19 10:15:15;;;;;;;5.28;3.20;;;;;;;;;;4966305;28;20083;-81
2023/04/19 10:17:41;;;;;;;4.57;3.50;;;;;;;;;;4954727;28;20162;-79
2023/04/19 10:20:12;;;;;;;3.67;3.10;;;;;;;;;;4970339;28;20114;-80
2023/04/19 10:22:38;;;;;;;6.43;3.45;;;;;;;;;;4966118;28;20051;-79
2023/04/19 10:25:14;;;;;;;8.98;3.40;;;;;;;;;;4956270;28;20023;-80
2023/04/19 10:27:50;;;;;;;5.50;3.30;;;;;;;;;;4957637;28;20058;-79
2023/04/19 10:30:21;;;;;;;5.35;3.40;;;;;;;;;;4978051;28;20034;-82
2023/04/19 10:32:58;;;;;;;3.45;2.53;;;;;;;;;;4989625;28;20039;-82
2023/04/19 10:35:37;;;;;;;5.25;3.00;;;;;;;;;;4992327;28;20072;-80
2023/04/19 10:38:11;;;;;;;5.53;2.70;;;;;;;;;;4992073;28;20030;-81
2023/04/19 10:41:00;;;;;;;5.38;2.17;;;;;;;;;;4991809;28;20054;-81
2023/04/19 10:43:30;;;;;;;3.78;2.60;;;;;;;;;;4986713;28;20400;-78
2023/04/19 10:46:21;;;;;;;3.45;2.60;;;;;;;;;;4991647;28;20089;-81
2023/04/19 10:48:57;;;;;;;3.60;2.55;;;;;;;;;;4987269;28;20038;-80
2023/04/19 10:51:31;;;;;;;7.43;2.80;;;;;;;;;;4985715;28;20031;-82
2023/04/19 10:54:04;;;;;;;2.92;2.40;;;;;;;;;;4987961;28;20439;-79
2023/04/19 10:56:33;;;;;;;5.03;2.90;;;;;;;;;;4986758;28;20045;-80
2023/04/19 10:59:06;;;;;;;4.05;2.60;;;;;;;;;;4994486;28;20121;-81
2023/04/19 11:01:43;;;;;;;3.45;2.30;;;;;;;;;;4995389;28;20049;-80
2023/04/19 11:04:12;;;;;;;4.05;2.60;;;;;;;;;;4995283;28;20034;-83
2023/04/19 11:06:55;;;;;;;6.07;2.58;;;;;;;;;;5027658;28;20480;-79
2023/04/19 11:09:46;;;;;;;4.18;2.55;;;;;;;;;;5027023;28;20041;-81
2023/04/19 11:12:16;;;;;;;5.55;2.40;;;;;;;;;;4996562;28;20038;-81
2023/04/19 11:14:46;;;;;;;4.07;2.55;;;;;;;;;;4994549;28;20492;-85
2023/04/19 11:17:30;;;;;;;3.13;2.20;;;;;;;;;;5010783;28;20038;-80
2023/04/19 11:20:01;;;;;;;4.57;2.38;;;;;;;;;;4994424;28;20460;-79
2023/04/19 11:22:40;;;;;;;5.75;2.70;;;;;;;;;;4995128;28;20030;-78
2023/04/19 11:25:21;;;;;;;4.28;2.50;;;;;;;;;;4993587;28;20034;-77
2023/04/19 11:27:49;;;;;;;3.45;2.53;;;;;;;;;;4992452;28;20125;-79
2023/04/19 11:30:18;;;;;;;3.50;2.50;;;;;;;;;;4994750;28;20022;-80
2023/04/19 11:32:53;;;;;;;4.75;2.30;;;;;;;;;;5025734;28;20042;-79
2023/04/19 11:35:26;;;;;;;9.40;2.70;;;;;;;;;;5023168;28;20130;-78
2023/04/19 11:37:55;;;;;;;3.40;2.20;;;;;;;;;;5026603;28;20053;-80
2023/04/19 11:40:25;;;;;;;4.18;2.13;;;;;;;;;;5008608;28;20042;-81
2023/04/19 11:43:03;;;;;;;2.75;2.15;;;;;;;;;;4994712;28;20049;-80
2023/04/19 11:45:33;;;;;;;2.97;2.08;;;;;;;;;;4993085;28;20026;-78
2023/04/19 11:47:59;;;;;;;5.65;2.92;;;;;;;;;;4993122;28;20492;-78
2023/04/19 11:50:39;;;;;;;4.47;3.15;;;;;;;;;;4995370;28;20088;-80
2023/04/19 11:53:20;;;;;;;2.95;2.30;;;;;;;;;;4994855;28;20045;-80
2023/04/19 11:55:55;;;;;;;9.02;2.75;;;;;;;;;;4995187;28;20035;-79
2023/04/19 11:58:48;;;;;;;4.55;2.53;;;;;;;;;;4994410;28;20029;-78
2023/04/19 12:01:21;;;;;;;8.45;3.42;;;;;;;;;;5009106;28;20113;-79
2023/04/19 12:03:55;;;;;;;4.18;2.63;;;;;;;;;;4993895;28;20491;-77
2023/04/19 12:06:30;;;;;;;5.40;2.85;;;;;;;;;;4993661;28;20042;-78
2023/04/19 12:08:56;;;;;;;4.85;3.03;;;;;;;;;;4993686;28;20034;-80
2023/04/19 12:11:40;;;;;;;4.25;2.70;;;;;;;;;;5022246;28;20027;-80
2023/04/19 12:14:08;;;;;;;4.75;3.20;;;;;;;;;;4993052;28;20173;-79
2023/04/19 12:16:36;;;;;;;6.72;3.10;;;;;;;;;;4993078;28;20022;-80
2023/04/19 12:19:16;;;;;;;5.63;3.47;;;;;;;;;;4993137;28;20443;-78
2023/04/19 12:21:44;;;;;;;6.43;4.05;;;;;;;;;;4991841;28;20069;-78
2023/04/19 12:24:13;;;;;;;7.45;4.38;;;;;;;;;;4992803;28;20094;-80
2023/04/19 12:26:55;;;;;;;5.53;4.05;;;;;;;;;;4991968;28;20038;-79
2023/04/19 12:29:23;;;;;;;7.05;3.45;;;;;;;;;;4993317;28;20034;-80
2023/04/19 12:31:49;;;;;;;4.78;3.30;;;;;;;;;;4991802;28;20277;-80
2023/04/19 12:34:17;;;;;;;5.22;3.30;;;;;;;;;;4992171;28;20038;-80
2023/04/19 12:36:43;;;;;;;4.38;3.20;;;;;;;;;;4993218;28;20034;-79
2023/04/19 12:39:09;;;;;;;4.53;3.28;;;;;;;;;;4993189;28;20041;-80
2023/04/19 12:41:36;;;;;;;4.85;2.60;;;;;;;;;;4992980;28;20050;-80
2023/04/19 12:44:01;;;;;;;5.70;3.30;;;;;;;;;;4975087;28;20041;-81
2023/04/19 12:46:27;;;;;;;6.97;3.13;;;;;;;;;;4992877;28;20018;-80
2023/04/19 12:48:55;;;;;;;6.88;3.20;;;;;;;;;;4991461;28;20053;-85
2023/04/19 12:51:21;;;;;;;5.57;3.28;;;;;;;;;;4992989;28;20503;-83
2023/04/19 12:53:51;;;;;;;7.05;2.97;;;;;;;;;;4992347;28;20117;-82
2023/04/19 12:56:17;;;;;;;5.65;3.45;;;;;;;;;;4989659;28;20116;-85
2023/04/19 12:58:43;;;;;;;17.05;4.32;;;;;;;;;;4993856;28;20030;-78
2023/04/19 13:01:11;;;;;;;10.02;4.35;;;;;;;;;;4992940;28;20089;-80
2023/04/19 13:03:37;;;;;;;4.85;3.42;;;;;;;;;;4991132;28;20034;-79
2023/04/19 13:06:06;;;;;;;5.28;3.25;;;;;;;;;;4993116;28;20038;-79
2023/04/19 13:08:32;;;;;;;6.45;3.72;;;;;;;;;;4991660;28;20069;-80
2023/04/19 13:10:58;;;;;;;4.50;3.13;;;;;;;;;;4992127;28;20057;-79
2023/04/19 13:13:26;;;;;;;6.32;3.30;;;;;;;;;;4991319;28;20033;-80
2023/04/19 13:15:53;;;;;;;4.93;3.53;;;;;;;;;;4992831;28;20081;-80
2023/04/19 13:18:18;;;;;;;5.40;3.45;;;;;;;;;;4992365;28;20034;-82
2023/04/19 13:20:45;;;;;;;4.72;3.53;;;;;;;;;;4993428;28;20457;-80
2023/04/19 13:23:10;;;;;;;9.35;4.28;;;;;;;;;;4994052;28;20034;-79
2023/04/19 13:25:37;;;;;;;7.88;3.83;;;;;;;;;;4994878;28;20497;-79
2023/04/19 13:28:04;;;;;;;5.70;3.30;;;;;;;;;;4994248;28;20176;-78
2023/04/19 13:30:30;;;;;;;5.32;3.20;;;;;;;;;;4995783;28;20066;-81
2023/04/19 13:32:56;;;;;;;6.53;4.00;;;;;;;;;;4992783;28;20037;-80
2023/04/19 13:35:22;;;;;;;4.72;3.83;;;;;;;;;;5007752;28;20077;-79
2023/04/19 13:37:50;;;;;;;4.88;3.13;;;;;;;;;;4992810;28;20026;-82
2023/04/19 13:40:17;;;;;;;5.68;2.90;;;;;;;;;;4991176;28;20026;-80
2023/04/19 13:42:43;;;;;;;4.60;3.22;;;;;;;;;;4992143;28;20036;-80
2023/04/19 13:45:09;;;;;;;4.40;3.17;;;;;;;;;;4983087;28;20114;-78
2023/04/19 13:47:35;;;;;;;4.28;2.88;;;;;;;;;;4985384;28;20048;-80
2023/04/19 13:50:01;;;;;;;7.63;4.40;;;;;;;;;;4992152;28;20034;-79
2023/04/19 13:52:27;;;;;;;5.38;3.13;;;;;;;;;;4990718;28;20112;-80
2023/04/19 13:54:52;;;;;;;5.03;3.28;;;;;;;;;;4987052;28;20085;-79
2023/04/19 13:57:18;;;;;;;3.58;2.97;;;;;;;;;;4991267;28;20459;-79
2023/04/19 13:59:45;;;;;;;5.32;3.45;;;;;;;;;;4974574;28;20589;-80
2023/04/19 14:02:10;;;;;;;6.20;3.20;;;;;;;;;;4991592;28;20026;-80
2023/04/19 14:04:36;;;;;;;6.63;3.70;;;;;;;;;;4992338;28;20034;-78
2023/04/19 14:07:03;;;;;;;5.47;3.67;;;;;;;;;;4990444;28;20038;-79
2023/04/19 14:09:30;;;;;;;5.55;4.18;;;;;;;;;;4990523;28;20128;-79
2023/04/19 14:11:56;;;;;;;7.82;4.13;;;;;;;;;;4987013;28;20023;-80
2023/04/19 14:14:22;;;;;;;6.53;4.47;;;;;;;;;;4990591;28;20057;-81
2023/04/19 14:16:47;;;;;;;4.90;3.70;;;;;;;;;;4990922;28;20036;-81
2023/04/19 14:19:13;;;;;;;17.85;4.55;;;;;;;;;;4988019;28;20042;-81
2023/04/19 14:21:39;;;;;;;6.88;3.85;;;;;;;;;;4990801;28;20033;-80
2023/04/19 14:24:06;;;;;;;5.53;4.05;;;;;;;;;;4989719;28;20026;-79
2023/04/19 14:26:32;;;;;;;6.57;4.32;;;;;;;;;;4992186;28;20058;-79
2023/04/19 14:28:58;;;;;;;6.57;4.43;;;;;;;;;;4989441;28;20120;-80
2023/04/19 14:31:24;;;;;;;10.82;4.97;;;;;;;;;;4994683;28;20038;-81
2023/04/19 14:33:55;;;;;;;7.97;4.70;;;;;;;;;;4994898;28;20049;-78
2023/04/19 14:36:21;;;;;;;6.43;3.90;;;;;;;;;;5013107;28;20484;-80
2023/04/19 14:38:47;;;;;;;8.07;3.38;;;;;;;;;;5023584;28;20036;-80
2023/04/19 14:41:12;;;;;;;6.45;3.58;;;;;;;;;;4995123;28;20030;-80
2023/04/19 14:43:38;;;;;;;5.95;3.75;;;;;;;;;;4994228;28;20503;-78
2023/04/19 14:46:06;;;;;;;6.30;4.03;;;;;;;;;;4994424;28;20104;-81
2023/04/19 14:48:32;;;;;;;4.43;3.42;;;;;;;;;;5008465;28;20535;-82